createdAt,value
2022-08-25T00:00:34.997Z,24.07
2022-08-25T00:05:37.753Z,24.11
2022-08-25T00:10:41.755Z,24.07
2022-08-25T00:15:44.036Z,24.01
2022-08-25T00:20:49.077Z,23.96
2022-08-25T00:25:51.550Z,23.92
2022-08-25T00:30:53.792Z,23.84
2022-08-25T00:35:56.430Z,23.77
2022-08-25T00:41:07.936Z,23.66
2022-08-25T00:46:10.974Z,23.55
2022-08-25T00:51:17.093Z,23.49
2022-08-25T00:56:19.635Z,23.34
2022-08-25T01:01:24.175Z,23.28
2022-08-25T01:06:31.364Z,23.29
2022-08-25T01:11:35.132Z,23.28
2022-08-25T01:16:38.981Z,23.29
2022-08-25T01:21:45.335Z,23.30
2022-08-25T01:26:47.884Z,23.16
2022-08-25T01:31:58.889Z,23.11
2022-08-25T01:37:01.291Z,23.04
2022-08-25T01:42:04.272Z,22.96
2022-08-25T01:47:07.907Z,22.88
2022-08-25T01:52:21.866Z,22.94
2022-08-25T01:57:24.399Z,22.72
2022-08-25T02:02:26.582Z,22.67
2022-08-25T02:07:28.953Z,22.58
2022-08-25T02:12:32.704Z,22.55
2022-08-25T02:17:54.834Z,22.45
2022-08-25T02:22:57.254Z,22.39
2022-08-25T02:27:59.937Z,22.32
2022-08-25T02:33:02.376Z,22.42
2022-08-25T02:38:05.017Z,22.44
2022-08-25T02:43:07.278Z,22.43
2022-08-25T02:48:09.403Z,22.42
2022-08-25T02:53:12.491Z,22.42
2022-08-25T02:58:15.829Z,22.41
2022-08-25T03:03:18.182Z,22.42
2022-08-25T03:08:21.338Z,22.47
2022-08-25T03:13:23.549Z,22.53
2022-08-25T03:18:25.782Z,22.64
2022-08-25T03:23:27.902Z,22.78
2022-08-25T03:28:33.061Z,22.93
2022-08-25T03:33:36.478Z,23.05
2022-08-25T03:38:38.971Z,23.11
2022-08-25T03:43:41.595Z,23.13
2022-08-25T03:48:43.732Z,23.18
2022-08-25T03:53:45.902Z,23.26
2022-08-25T03:58:48.068Z,23.38
2022-08-25T04:03:50.411Z,23.47
2022-08-25T04:08:55.625Z,23.64
2022-08-25T04:13:59.491Z,23.80
2022-08-25T04:19:05.992Z,24.00
2022-08-25T04:24:10.575Z,24.14
2022-08-25T04:29:14.641Z,24.31
2022-08-25T04:34:29.890Z,24.59
2022-08-25T04:39:33.905Z,24.62
2022-08-25T04:44:36.090Z,24.77
2022-08-25T04:49:38.271Z,24.92
2022-08-25T04:54:40.476Z,25.06
2022-08-25T04:59:42.739Z,25.28
2022-08-25T05:04:45.155Z,25.59
2022-08-25T05:09:47.363Z,26.51
2022-08-25T05:14:53.439Z,27.77
2022-08-25T05:19:55.607Z,28.87
2022-08-25T05:24:58.065Z,29.69
2022-08-25T05:30:00.221Z,30.63
2022-08-25T05:35:02.480Z,31.58
2022-08-25T05:40:07.189Z,32.43
2022-08-25T05:45:10.008Z,33.02
2022-08-25T05:50:18.235Z,34.20
2022-08-25T05:55:20.674Z,35.02
2022-08-25T06:00:22.865Z,35.88
2022-08-25T06:05:25.454Z,36.71
2022-08-25T06:10:28.547Z,37.33
2022-08-25T06:15:31.567Z,38.53
2022-08-25T06:20:33.751Z,39.55
2022-08-25T06:25:35.850Z,40.83
2022-08-25T06:30:39.681Z,41.85
2022-08-25T06:35:43.999Z,42.75
2022-08-25T06:40:48.459Z,43.78
2022-08-25T06:45:50.540Z,44.89
2022-08-25T06:50:52.714Z,45.70
2022-08-25T06:56:00.519Z,46.31
2022-08-25T07:01:19.658Z,45.89
2022-08-25T07:06:22.551Z,44.50
2022-08-25T07:11:24.837Z,44.04
2022-08-25T07:16:29.891Z,43.79
2022-08-25T07:21:35.800Z,43.90
2022-08-25T07:26:40.574Z,43.66
2022-08-25T07:31:43.151Z,44.08
2022-08-25T07:36:45.370Z,45.19
2022-08-25T07:41:47.733Z,46.05
2022-08-25T07:46:54.737Z,46.11
2022-08-25T07:52:04.531Z,46.91
2022-08-25T07:57:09.181Z,47.92
2022-08-25T08:02:18.544Z,48.45
2022-08-25T08:07:41.127Z,49.65
2022-08-25T08:12:46.006Z,51.08
2022-08-25T08:17:48.205Z,51.15
2022-08-25T08:22:50.502Z,50.55
2022-08-25T08:28:01.725Z,50.22
2022-08-25T08:33:10.065Z,48.79
2022-08-25T08:38:18.459Z,48.47
2022-08-25T08:43:24.999Z,47.56
2022-08-25T08:48:50.036Z,46.07
2022-08-25T08:54:01.154Z,44.54
2022-08-25T08:59:09.744Z,44.55
2022-08-25T09:04:20.251Z,46.92
2022-08-25T09:09:29.686Z,47.72
2022-08-25T09:14:43.150Z,46.28
2022-08-25T09:20:18.389Z,46.05
2022-08-25T09:31:01.917Z,48.26
2022-08-25T09:36:06.455Z,45.93
2022-08-25T09:41:15.654Z,45.59
2022-08-25T09:46:28.014Z,47.06
2022-08-25T09:51:38.252Z,48.05
2022-08-25T09:56:54.223Z,47.40
2022-08-25T10:01:59.222Z,46.40
2022-08-25T10:07:03.907Z,47.09
2022-08-25T10:12:30.005Z,48.39
2022-08-25T10:17:33.430Z,48.14
2022-08-25T10:22:37.031Z,46.91
2022-08-25T10:27:47.528Z,45.54
2022-08-25T10:32:57.374Z,44.77
2022-08-25T10:38:23.967Z,44.99
2022-08-25T10:43:41.351Z,43.86
2022-08-25T10:49:02.990Z,44.13
2022-08-25T10:54:41.827Z,44.87
2022-08-25T10:59:44.132Z,43.45
2022-08-25T11:05:24.726Z,43.80
2022-08-25T11:10:38.696Z,44.79
2022-08-25T11:16:13.620Z,46.25
2022-08-25T11:21:23.457Z,47.51
2022-08-25T11:26:36.821Z,48.40
2022-08-25T11:31:53.526Z,48.52
2022-08-25T11:37:01.264Z,47.67
2022-08-25T11:42:36.678Z,46.67
2022-08-25T11:47:47.581Z,44.88
2022-08-25T11:52:56.524Z,44.74
2022-08-25T11:58:37.411Z,44.68
2022-08-25T12:03:39.404Z,44.03
2022-08-25T12:08:50.925Z,43.59
2022-08-25T12:13:53.165Z,42.55
2022-08-25T12:19:29.432Z,42.55
2022-08-25T12:24:48.282Z,39.93
2022-08-25T12:29:50.688Z,38.17
2022-08-25T12:35:16.038Z,37.84
2022-08-25T12:40:31.857Z,37.23
2022-08-25T12:45:47.694Z,36.81
2022-08-25T12:50:57.852Z,36.54
2022-08-25T12:56:28.686Z,36.37
2022-08-25T13:01:58.418Z,37.57
2022-08-25T13:07:08.128Z,39.03
2022-08-25T13:12:38.140Z,40.84
2022-08-25T13:17:40.093Z,42.47
2022-08-25T13:22:47.485Z,42.41
2022-08-25T13:27:57.394Z,42.66
2022-08-25T13:33:00.842Z,41.96
2022-08-25T13:38:16.116Z,42.01
2022-08-25T13:43:18.258Z,41.64
2022-08-25T13:48:38.375Z,41.49
2022-08-25T13:53:40.899Z,41.19
2022-08-25T13:58:46.788Z,40.99
2022-08-25T14:03:49.040Z,40.07
2022-08-25T14:09:00.487Z,39.15
2022-08-25T14:14:09.624Z,38.08
2022-08-25T14:19:19.771Z,37.33
2022-08-25T14:24:23.576Z,37.53
2022-08-25T14:29:26.508Z,36.01
2022-08-25T14:34:33.364Z,35.55
2022-08-25T14:39:35.508Z,35.13
2022-08-25T14:44:38.030Z,34.99
2022-08-25T14:49:45.930Z,34.83
2022-08-25T14:54:48.206Z,34.66
2022-08-25T14:59:50.407Z,34.42
2022-08-25T15:05:02.521Z,34.38
2022-08-25T15:10:06.204Z,34.03
2022-08-25T15:15:10.006Z,33.93
2022-08-25T15:20:15.484Z,33.70
2022-08-25T15:25:18.322Z,33.43
2022-08-25T15:30:20.455Z,33.24
2022-08-25T15:35:22.782Z,33.15
2022-08-25T15:40:31.561Z,33.00
2022-08-25T15:45:36.235Z,32.80
2022-08-25T15:50:38.816Z,32.64
2022-08-25T15:55:41.265Z,32.52
2022-08-25T16:00:45.096Z,32.40
2022-08-25T16:05:58.237Z,32.22
2022-08-25T16:11:00.821Z,32.06
2022-08-25T16:16:03.791Z,31.88
2022-08-25T16:21:13.136Z,31.80
2022-08-25T16:26:15.974Z,31.42
2022-08-25T16:31:18.831Z,31.17
2022-08-25T16:36:24.486Z,30.94
2022-08-25T16:41:34.333Z,30.63
2022-08-25T16:46:38.121Z,30.36
2022-08-25T16:51:43.545Z,30.12
2022-08-25T16:56:45.903Z,29.89
2022-08-25T17:01:48.462Z,29.55
2022-08-25T17:06:53.688Z,29.46
2022-08-25T17:11:57.359Z,29.15
2022-08-25T17:16:59.629Z,29.08
2022-08-25T17:22:01.820Z,28.92
2022-08-25T17:27:05.579Z,28.71
2022-08-25T17:32:07.790Z,28.58
2022-08-25T17:37:10.321Z,28.41
2022-08-25T17:42:12.595Z,28.23
2022-08-25T17:47:14.697Z,28.10
2022-08-25T17:52:21.501Z,27.98
2022-08-25T17:57:27.224Z,27.85
2022-08-25T18:02:30.317Z,27.78
2022-08-25T18:07:32.961Z,27.71
2022-08-25T18:12:37.671Z,27.69
2022-08-25T18:17:39.885Z,27.62
2022-08-25T18:22:44.089Z,27.66
2022-08-25T18:27:46.371Z,27.68
2022-08-25T18:32:48.865Z,27.70
2022-08-25T18:38:10.053Z,27.62
2022-08-25T18:43:14.407Z,27.80
2022-08-25T18:48:18.076Z,27.76
2022-08-25T18:53:30.721Z,27.77
2022-08-25T18:58:45.672Z,27.79
2022-08-25T19:03:48.003Z,27.68
2022-08-25T19:08:50.399Z,27.65
2022-08-25T19:14:12.294Z,27.65
2022-08-25T19:19:15.113Z,27.65
2022-08-25T19:24:18.177Z,27.63
2022-08-25T19:29:20.336Z,27.61
2022-08-25T19:34:30.435Z,27.60
2022-08-25T19:39:35.190Z,27.50
2022-08-25T19:44:41.823Z,27.43
2022-08-25T19:49:44.017Z,27.33
2022-08-25T19:54:46.715Z,27.21
2022-08-25T19:59:49.664Z,27.14
2022-08-25T20:04:55.245Z,27.06
2022-08-25T20:09:59.398Z,26.99
2022-08-25T20:15:02.569Z,26.93
2022-08-25T20:20:09.594Z,26.96
2022-08-25T20:25:17.800Z,26.91
2022-08-25T20:30:27.544Z,26.87
2022-08-25T20:35:29.899Z,26.59
2022-08-25T20:40:32.692Z,26.39
2022-08-25T20:45:34.782Z,26.24
2022-08-25T20:50:38.808Z,26.16
2022-08-25T20:55:43.669Z,26.03
2022-08-25T21:00:46.549Z,25.89
2022-08-25T21:05:53.932Z,25.74
2022-08-25T21:10:56.561Z,25.72
2022-08-25T21:16:02.152Z,25.73
2022-08-25T21:21:14.708Z,25.62
2022-08-25T21:26:25.246Z,25.51
2022-08-25T21:31:29.587Z,25.38
2022-08-25T21:36:32.390Z,25.31
2022-08-25T21:41:36.847Z,25.25
2022-08-25T21:46:39.447Z,25.13
2022-08-25T21:51:44.710Z,25.02
2022-08-25T21:56:55.006Z,25.05
2022-08-25T22:02:04.463Z,24.98
2022-08-25T22:07:08.115Z,24.80
2022-08-25T22:12:10.287Z,24.68
2022-08-25T22:17:16.937Z,24.61
2022-08-25T22:22:23.947Z,24.57
2022-08-25T22:27:26.243Z,24.54
2022-08-25T22:32:28.336Z,24.50
2022-08-25T22:37:30.658Z,24.41
2022-08-25T22:42:32.842Z,24.35
2022-08-25T22:47:35.402Z,24.30
2022-08-25T22:52:38.257Z,24.15
2022-08-25T22:57:45.102Z,24.18
2022-08-25T23:02:47.530Z,24.21
2022-08-25T23:07:50.646Z,24.23
2022-08-25T23:12:52.845Z,24.15
2022-08-25T23:17:54.970Z,24.20
2022-08-25T23:22:57.066Z,24.20
2022-08-25T23:27:59.363Z,24.25
2022-08-25T23:33:01.632Z,24.18
2022-08-25T23:38:03.754Z,24.31
2022-08-25T23:43:06.728Z,24.35
2022-08-25T23:48:09.305Z,24.30
2022-08-25T23:53:12.318Z,24.19
2022-08-25T23:58:15.523Z,24.09
